Time;durP1;ratioP1;P1;durP2;ratioP2;P2;SDS_P1;SDS_P2;PMS_P1;PMS_P2;Temp;Humidity;BMP_temperature;BMP_pressure;BME280_temperature;BME280_humidity;BME280_pressure;Samples;Min_cycle;Max_cycle;Signal;HPM_P1;HPM_P2
2022/04/16 00:01:00;;;;;;;1.67;1.67;;;19.60;65.90;;;;;;5026886;28;43989;-72
2022/04/16 00:03:28;;;;;;;1.67;1.67;;;19.50;66.10;;;;;;5027769;28;43433;-71
2022/04/16 00:05:56;;;;;;;1.43;1.43;;;19.50;66.30;;;;;;5009513;28;44168;-71
2022/04/16 00:08:25;;;;;;;1.53;1.53;;;19.40;66.40;;;;;;5027097;28;43953;-71
2022/04/16 00:10:53;;;;;;;1.80;1.80;;;19.40;66.80;;;;;;5008521;28;45223;-71
2022/04/16 00:13:22;;;;;;;1.60;1.60;;;19.40;66.90;;;;;;5027375;28;43858;-71
2022/04/16 00:15:52;;;;;;;1.50;1.50;;;19.50;66.70;;;;;;5027165;28;43993;-72
2022/04/16 00:18:21;;;;;;;1.60;1.60;;;19.70;66.30;;;;;;5026820;28;44323;-72
2022/04/16 00:20:49;;;;;;;1.50;1.50;;;19.90;65.70;;;;;;5008280;28;44076;-72
2022/04/16 00:23:19;;;;;;;1.40;1.40;;;20.00;65.40;;;;;;5027435;28;43848;-72
2022/04/16 00:25:47;;;;;;;1.50;1.50;;;19.90;65.10;;;;;;5027436;28;43960;-71
2022/04/16 00:28:15;;;;;;;1.43;1.43;;;19.80;65.10;;;;;;5027261;28;43961;-73
2022/04/16 00:30:43;;;;;;;1.60;1.60;;;19.80;65.30;;;;;;5027321;28;43977;-73
2022/04/16 00:33:13;;;;;;;1.60;1.60;;;19.60;65.50;;;;;;5027052;28;44009;-71
2022/04/16 00:35:42;;;;;;;1.50;1.50;;;19.60;65.90;;;;;;5027154;28;43552;-72
2022/04/16 00:38:10;;;;;;;1.70;1.70;;;19.50;66.00;;;;;;5026066;28;43578;-72
2022/04/16 00:40:38;;;;;;;1.60;1.60;;;19.40;66.20;;;;;;5027034;28;44243;-72
2022/04/16 00:43:06;;;;;;;1.60;1.60;;;19.40;66.40;;;;;;5026549;28;44001;-71
2022/04/16 00:45:35;;;;;;;1.60;1.60;;;19.40;66.90;;;;;;5027392;28;43976;-72
2022/04/16 00:48:05;;;;;;;1.60;1.60;;;19.50;66.90;;;;;;5025979;28;43727;-72
2022/04/16 00:50:34;;;;;;;1.43;1.43;;;19.60;66.60;;;;;;5026826;28;43966;-72
2022/04/16 00:53:02;;;;;;;1.40;1.40;;;19.80;66.00;;;;;;5026106;28;44203;-71
2022/04/16 00:55:30;;;;;;;1.37;1.37;;;19.90;65.50;;;;;;5009346;28;44369;-73
2022/04/16 00:57:58;;;;;;;1.50;1.50;;;19.90;65.40;;;;;;5026505;28;44098;-72
2022/04/16 01:00:26;;;;;;;1.30;1.30;;;19.80;65.20;;;;;;5026786;28;44012;-71
2022/04/16 01:02:54;;;;;;;1.40;1.40;;;19.70;65.30;;;;;;5025740;28;43929;-72
2022/04/16 01:05:22;;;;;;;1.40;1.40;;;19.60;65.60;;;;;;5026446;28;44187;-71
2022/04/16 01:07:53;;;;;;;1.40;1.40;;;19.50;65.80;;;;;;5026433;28;44860;-72
2022/04/16 01:10:21;;;;;;;1.40;1.40;;;19.50;66.10;;;;;;5026441;28;44137;-72
2022/04/16 01:12:49;;;;;;;1.30;1.30;;;19.40;66.20;;;;;;5026281;28;43810;-71
2022/04/16 01:15:20;;;;;;;1.30;1.30;;;19.40;66.40;;;;;;5008943;28;44278;-71
2022/04/16 01:17:48;;;;;;;1.30;1.30;;;19.30;66.60;;;;;;5025909;28;44218;-72
2022/04/16 01:20:16;;;;;;;1.30;1.30;;;19.30;67.00;;;;;;5026407;28;43949;-71
2022/04/16 01:22:46;;;;;;;1.47;1.47;;;19.50;66.90;;;;;;5026329;28;44347;-72
2022/04/16 01:25:14;;;;;;;1.40;1.40;;;19.60;66.50;;;;;;5026725;28;44048;-71
2022/04/16 01:27:45;;;;;;;1.40;1.40;;;19.80;65.90;;;;;;5007951;28;45943;-72
2022/04/16 01:30:14;;;;;;;1.50;1.50;;;19.80;65.50;;;;;;5025643;28;43905;-71
2022/04/16 01:32:42;;;;;;;1.33;1.33;;;19.80;65.50;;;;;;5026207;28;43985;-71
2022/04/16 01:35:10;;;;;;;1.37;1.37;;;19.70;65.40;;;;;;5008203;28;44057;-72
2022/04/16 01:37:38;;;;;;;1.27;1.27;;;19.60;65.60;;;;;;5008020;28;46016;-71
2022/04/16 01:40:09;;;;;;;1.30;1.30;;;19.60;65.80;;;;;;5025371;28;44028;-71
2022/04/16 01:42:37;;;;;;;1.40;1.40;;;19.50;66.00;;;;;;5025990;28;44020;-71
2022/04/16 01:45:06;;;;;;;1.13;1.13;;;19.40;66.20;;;;;;5025836;28;43503;-72
2022/04/16 01:47:36;;;;;;;1.40;1.40;;;19.40;66.40;;;;;;5025957;28;44058;-72
2022/04/16 01:50:05;;;;;;;1.30;1.30;;;19.30;66.50;;;;;;5007490;28;44851;-71
2022/04/16 01:52:33;;;;;;;1.10;1.10;;;19.30;66.90;;;;;;5025753;28;43782;-71
2022/04/16 01:55:01;;;;;;;1.17;1.17;;;19.40;67.20;;;;;;5025892;28;43388;-71
2022/04/16 01:57:30;;;;;;;1.20;1.20;;;19.50;66.80;;;;;;5025998;28;45078;-71
2022/04/16 01:59:58;;;;;;;1.10;1.10;;;19.60;66.30;;;;;;5024847;28;43973;-71
2022/04/16 02:02:26;;;;;;;1.30;1.30;;;19.60;66.00;;;;;;5025568;28;43953;-72
2022/04/16 02:04:54;;;;;;;1.20;1.20;;;19.60;65.90;;;;;;5025815;28;43933;-71
2022/04/16 02:07:22;;;;;;;1.20;1.20;;;19.60;66.00;;;;;;5025467;28;43882;-71
2022/04/16 02:09:50;;;;;;;1.30;1.30;;;19.50;66.10;;;;;;5025209;28;44037;-72
2022/04/16 02:12:18;;;;;;;1.30;1.30;;;19.40;66.20;;;;;;5025744;28;43998;-71
2022/04/16 02:14:47;;;;;;;1.20;1.20;;;19.40;66.40;;;;;;5025607;28;44271;-72
2022/04/16 02:17:15;;;;;;;1.30;1.30;;;19.30;66.50;;;;;;5026631;28;43960;-71
2022/04/16 02:19:43;;;;;;;1.20;1.20;;;19.30;66.60;;;;;;5013889;28;45784;-71
2022/04/16 02:22:11;;;;;;;1.30;1.30;;;19.20;66.60;;;;;;5032312;28;43324;-71
2022/04/16 02:24:39;;;;;;;1.00;1.00;;;19.20;66.70;;;;;;5032838;28;43356;-71
2022/04/16 02:27:08;;;;;;;1.20;1.20;;;19.20;67.00;;;;;;5031633;28;44087;-71
2022/04/16 02:29:36;;;;;;;1.10;1.10;;;19.30;67.20;;;;;;5032064;28;43977;-72
2022/04/16 02:32:06;;;;;;;1.30;1.30;;;19.40;66.90;;;;;;5031418;28;43999;-71
2022/04/16 02:34:34;;;;;;;1.30;1.30;;;19.60;66.30;;;;;;5024637;28;43878;-71
2022/04/16 02:37:02;;;;;;;1.20;1.20;;;19.80;65.70;;;;;;5025293;28;44527;-71
2022/04/16 02:39:31;;;;;;;1.20;1.20;;;20.00;65.30;;;;;;5007578;28;43985;-71
2022/04/16 02:41:59;;;;;;;1.20;1.20;;;20.00;64.80;;;;;;5025271;28;43449;-72
2022/04/16 02:47:13;;;;;;;1.30;1.30;;;19.90;64.80;;;;;;5027607;28;45106;-71
2022/04/16 02:49:43;;;;;;;1.10;1.10;;;19.80;65.00;;;;;;5031647;28;44008;-71
2022/04/16 02:52:11;;;;;;;1.30;1.30;;;19.70;65.30;;;;;;5031261;28;43883;-71
2022/04/16 02:54:39;;;;;;;1.10;1.10;;;19.60;65.60;;;;;;5032456;28;43978;-72
2022/04/16 02:57:07;;;;;;;1.07;1.07;;;19.50;65.80;;;;;;5031567;28;44114;-71
2022/04/16 02:59:35;;;;;;;1.20;1.20;;;19.40;66.00;;;;;;5031756;28;44289;-71
2022/04/16 03:02:05;;;;;;;1.20;1.20;;;19.40;66.50;;;;;;5031123;28;43752;-72
2022/04/16 03:04:34;;;;;;;1.20;1.20;;;19.50;66.60;;;;;;5032259;28;43834;-70
2022/04/16 03:07:02;;;;;;;1.27;1.27;;;19.60;66.10;;;;;;5031374;28;43882;-72
2022/04/16 03:09:30;;;;;;;1.07;1.07;;;19.70;65.80;;;;;;5031298;28;43997;-72
2022/04/16 03:11:58;;;;;;;1.10;1.10;;;19.60;65.60;;;;;;5031229;28;43985;-71
2022/04/16 03:19:59;;;;;;;1.20;1.20;;;19.50;66.00;;;;;;5012394;28;45902;-71
2022/04/16 03:22:27;;;;;;;1.00;1.00;;;19.40;66.20;;;;;;5031760;28;43436;-72
2022/04/16 03:24:55;;;;;;;1.10;1.10;;;19.30;66.20;;;;;;5031617;28;43814;-70
2022/04/16 03:27:23;;;;;;;1.20;1.20;;;19.30;66.40;;;;;;5031044;28;44663;-70
2022/04/16 03:29:51;;;;;;;1.30;1.30;;;19.30;66.50;;;;;;5027408;28;43946;-71
2022/04/16 03:32:18;;;;;;;1.20;1.20;;;19.20;66.60;;;;;;5028366;28;44034;-71
2022/04/16 03:34:46;;;;;;;1.10;1.10;;;19.20;66.80;;;;;;5028890;28;43460;-71
2022/04/16 03:37:16;;;;;;;1.20;1.20;;;19.20;66.90;;;;;;5027550;28;45007;-72
2022/04/16 03:39:44;;;;;;;1.43;1.30;;;19.40;66.80;;;;;;5027671;28;44099;-71
2022/04/16 03:42:12;;;;;;;1.10;1.10;;;19.60;66.40;;;;;;5009522;28;44061;-71
2022/04/16 03:44:40;;;;;;;1.20;1.20;;;19.80;65.70;;;;;;5010294;28;44048;-72
2022/04/16 03:47:10;;;;;;;1.10;1.10;;;20.00;65.20;;;;;;5027062;28;43933;-72
2022/04/16 03:49:38;;;;;;;1.10;1.10;;;20.00;64.90;;;;;;5027632;28;43954;-71
2022/04/16 03:52:06;;;;;;;1.10;1.10;;;19.90;64.80;;;;;;5027294;28;43918;-72
2022/04/16 04:00:09;;;;;;;1.00;1.00;;;19.60;65.50;;;;;;5026971;28;43929;-71
2022/04/16 04:02:39;;;;;;;1.10;1.10;;;19.40;65.70;;;;;;5027295;28;43992;-71
2022/04/16 04:05:08;;;;;;;1.00;1.00;;;19.40;66.00;;;;;;5027173;28;43952;-71
2022/04/16 04:07:36;;;;;;;1.30;1.30;;;19.30;66.10;;;;;;5027283;28;44749;-71
2022/04/16 04:10:06;;;;;;;0.93;0.93;;;19.30;66.60;;;;;;5027063;28;44048;-71
2022/04/16 04:12:34;;;;;;;1.00;1.00;;;19.40;66.60;;;;;;5027482;28;43929;-71
2022/04/16 04:15:02;;;;;;;1.20;1.20;;;19.60;66.20;;;;;;5027068;28;43835;-72
2022/04/16 04:17:30;;;;;;;1.10;1.10;;;19.60;65.70;;;;;;5026731;28;43957;-71
2022/04/16 04:19:58;;;;;;;1.10;1.10;;;19.60;65.50;;;;;;5026733;28;44175;-71
2022/04/16 04:22:26;;;;;;;1.00;1.00;;;19.50;65.50;;;;;;5027316;28;43945;-71
2022/04/16 04:24:54;;;;;;;1.03;1.03;;;19.50;65.80;;;;;;5026828;28;44113;-71
2022/04/16 04:27:23;;;;;;;1.03;1.03;;;19.40;66.00;;;;;;5026780;28;43933;-71
2022/04/16 04:29:51;;;;;;;1.10;1.10;;;19.30;66.10;;;;;;5008780;28;45191;-72
2022/04/16 04:32:19;;;;;;;1.20;1.20;;;19.30;66.40;;;;;;5026665;28;43898;-71
2022/04/16 04:34:47;;;;;;;1.17;1.17;;;19.20;66.40;;;;;;5028146;28;43975;-70
2022/04/16 04:37:15;;;;;;;1.27;1.27;;;19.20;66.60;;;;;;5027419;28;43957;-70
2022/04/16 04:39:43;;;;;;;1.00;1.00;;;19.20;66.70;;;;;;5027257;28;43960;-71
2022/04/16 04:42:11;;;;;;;1.00;1.00;;;19.20;66.90;;;;;;5008773;28;43833;-72
2022/04/16 04:44:40;;;;;;;1.10;1.10;;;19.20;67.10;;;;;;5027650;28;43929;-71
2022/04/16 04:47:08;;;;;;;1.00;1.00;;;19.30;66.80;;;;;;5026584;28;44008;-72
2022/04/16 04:49:36;;;;;;;1.20;1.20;;;19.50;66.30;;;;;;5027011;28;43476;-72
2022/04/16 04:52:05;;;;;;;0.90;0.90;;;19.70;65.80;;;;;;5009181;28;44017;-70
2022/04/16 04:54:33;;;;;;;1.10;1.10;;;19.90;65.20;;;;;;5009525;28;43950;-72
2022/04/16 04:57:00;;;;;;;1.20;1.20;;;19.90;64.90;;;;;;5008884;28;45719;-71
2022/04/16 04:59:28;;;;;;;1.10;1.10;;;19.90;64.80;;;;;;5026760;28;43445;-71
2022/04/16 05:01:58;;;;;;;1.10;1.10;;;19.80;64.90;;;;;;5026653;28;43972;-72
2022/04/16 05:04:26;;;;;;;1.20;1.20;;;19.70;65.10;;;;;;5027323;28;43918;-71
2022/04/16 05:06:54;;;;;;;1.03;1.03;;;19.60;65.40;;;;;;5008634;28;46235;-71
2022/04/16 05:09:23;;;;;;;1.23;1.23;;;19.50;65.60;;;;;;5026479;28;44059;-71
2022/04/16 05:11:51;;;;;;;1.03;1.03;;;19.40;65.90;;;;;;5008441;28;43961;-71
2022/04/16 05:14:19;;;;;;;1.00;1.00;;;19.30;66.00;;;;;;5027261;28;43781;-71
2022/04/16 05:16:46;;;;;;;1.13;1.13;;;19.30;66.50;;;;;;5026376;28;43962;-71
2022/04/16 05:19:16;;;;;;;1.10;1.10;;;19.40;66.60;;;;;;5026592;28;44104;-71
2022/04/16 05:21:44;;;;;;;1.37;1.37;;;19.50;66.10;;;;;;5025181;28;43989;-71
2022/04/16 05:24:12;;;;;;;1.10;1.10;;;19.60;65.80;;;;;;5026703;28;43954;-72
2022/04/16 05:26:40;;;;;;;1.20;1.20;;;19.60;65.60;;;;;;5026528;28;44046;-71
2022/04/16 05:29:08;;;;;;;1.07;1.07;;;19.50;65.60;;;;;;5025967;28;43933;-71
2022/04/16 05:31:36;;;;;;;1.03;1.03;;;19.50;65.80;;;;;;5026474;28;43917;-71
2022/04/16 05:34:19;;;;;;;1.20;1.20;;;19.40;66.00;;;;;;5026803;28;43980;-71
2022/04/16 05:36:49;;;;;;;0.90;0.90;;;19.30;66.10;;;;;;5026632;28;44021;-71
2022/04/16 05:39:17;;;;;;;1.00;1.00;;;19.20;66.20;;;;;;5026360;28;44081;-71
2022/04/16 05:41:45;;;;;;;1.10;1.10;;;19.20;66.40;;;;;;5026632;28;43984;-72
2022/04/16 05:44:13;;;;;;;1.17;1.17;;;19.20;66.50;;;;;;5026586;28;43912;-71
2022/04/16 05:46:42;;;;;;;1.10;1.10;;;19.20;66.60;;;;;;5025950;28;44179;-71
2022/04/16 05:49:10;;;;;;;1.00;1.00;;;19.20;66.80;;;;;;5007953;28;45357;-72
2022/04/16 05:51:38;;;;;;;1.03;1.03;;;19.20;66.90;;;;;;5026302;28;43980;-71
2022/04/16 05:54:07;;;;;;;1.20;1.20;;;19.30;66.60;;;;;;5025848;28;43962;-71
2022/04/16 05:56:35;;;;;;;1.20;1.20;;;19.50;66.20;;;;;;5007535;28;45780;-71
2022/04/16 05:59:03;;;;;;;1.23;1.23;;;19.80;65.80;;;;;;5025872;28;44162;-70
2022/04/16 06:01:31;;;;;;;1.00;1.00;;;19.90;65.10;;;;;;5025939;28;43897;-71
2022/04/16 06:03:59;;;;;;;1.17;1.17;;;19.90;64.80;;;;;;5026009;28;43365;-71
2022/04/16 06:06:27;;;;;;;1.00;1.00;;;19.90;64.70;;;;;;5025849;28;43996;-71
2022/04/16 06:08:55;;;;;;;1.20;1.20;;;19.80;64.80;;;;;;5025698;28;43953;-71
2022/04/16 06:11:28;;;;;;;1.20;1.20;;;19.70;65.00;;;;;;5008106;28;44022;-71
2022/04/16 06:13:56;;;;;;;1.03;1.03;;;19.60;65.30;;;;;;5026083;28;43305;-71
2022/04/16 06:16:24;;;;;;;1.23;1.23;;;19.50;65.50;;;;;;5009960;28;45949;-71
2022/04/16 06:18:52;;;;;;;1.10;1.10;;;19.40;65.80;;;;;;5025835;28;43853;-71
2022/04/16 06:21:20;;;;;;;1.20;1.20;;;19.40;66.00;;;;;;5026513;28;44020;-71
2022/04/16 06:23:47;;;;;;;1.10;1.10;;;19.30;66.40;;;;;;5026499;28;43991;-72
2022/04/16 06:26:15;;;;;;;1.20;1.20;;;19.40;66.60;;;;;;5026190;28;43908;-71
2022/04/16 06:28:45;;;;;;;1.23;1.23;;;19.50;66.10;;;;;;5025774;28;44087;-72
2022/04/16 06:31:13;;;;;;;1.30;1.30;;;19.60;65.70;;;;;;5025832;28;43817;-73
2022/04/16 06:33:46;;;;;;;1.40;1.30;;;19.60;65.50;;;;;;5026611;28;43459;-70
2022/04/16 06:36:14;;;;;;;1.20;1.20;;;19.60;65.50;;;;;;5019534;28;43941;-71
2022/04/16 06:38:42;;;;;;;1.10;1.10;;;19.50;65.50;;;;;;5034606;28;44796;-71
2022/04/16 06:41:10;;;;;;;1.30;1.30;;;19.40;65.70;;;;;;5019441;28;43952;-71
2022/04/16 06:43:41;;;;;;;1.40;1.40;;;19.30;65.90;;;;;;5025909;28;43968;-71
2022/04/16 06:46:11;;;;;;;1.27;1.27;;;19.30;66.10;;;;;;5023633;28;45309;-71
2022/04/16 06:48:39;;;;;;;1.37;1.37;;;19.30;66.30;;;;;;5025398;28;44055;-71
2022/04/16 06:51:07;;;;;;;1.30;1.30;;;19.20;66.30;;;;;;5025648;28;43376;-71
2022/04/16 06:53:35;;;;;;;1.10;1.10;;;19.20;66.40;;;;;;5025994;28;44028;-71
2022/04/16 06:56:03;;;;;;;1.10;1.10;;;19.20;66.50;;;;;;5025308;28;43977;-71
2022/04/16 06:58:31;;;;;;;1.20;1.20;;;19.10;66.70;;;;;;5025686;28;43796;-71
2022/04/16 07:01:00;;;;;;;1.20;1.20;;;19.20;66.70;;;;;;5025642;28;43387;-71
2022/04/16 07:03:29;;;;;;;1.33;1.33;;;19.40;66.30;;;;;;5024713;28;43965;-72
2022/04/16 07:05:57;;;;;;;1.27;1.27;;;19.60;65.90;;;;;;5028624;28;44052;-72
2022/04/16 07:08:25;;;;;;;1.20;1.20;;;19.80;65.30;;;;;;5028942;28;43884;-71
2022/04/16 07:10:53;;;;;;;1.30;1.30;;;19.90;64.80;;;;;;5028497;28;43932;-71
2022/04/16 07:13:21;;;;;;;1.40;1.40;;;20.00;64.60;;;;;;5029151;28;43772;-71
2022/04/16 07:15:49;;;;;;;1.40;1.40;;;19.90;64.50;;;;;;5026720;28;45283;-71
2022/04/16 07:18:17;;;;;;;1.10;1.10;;;19.80;64.60;;;;;;5028259;28;43969;-71
2022/04/16 07:20:47;;;;;;;1.27;1.27;;;19.70;64.90;;;;;;5028925;28;43914;-71
2022/04/16 07:23:14;;;;;;;1.30;1.30;;;19.60;65.20;;;;;;5029013;28;43976;-71
2022/04/16 07:25:43;;;;;;;1.20;1.20;;;19.50;65.50;;;;;;5028501;28;43966;-72
2022/04/16 07:28:12;;;;;;;1.33;1.33;;;19.40;65.70;;;;;;5028382;28;44100;-71
2022/04/16 07:30:40;;;;;;;1.37;1.37;;;19.30;65.80;;;;;;5028588;28;43957;-71
2022/04/16 07:33:08;;;;;;;1.27;1.27;;;19.30;66.30;;;;;;5028828;28;43462;-71
2022/04/16 07:35:38;;;;;;;1.10;1.10;;;19.30;66.40;;;;;;5028308;28;45121;-72
2022/04/16 07:38:08;;;;;;;1.30;1.30;;;19.40;65.90;;;;;;5028054;28;43988;-72
2022/04/16 07:40:36;;;;;;;1.40;1.40;;;19.50;66.30;;;;;;5028371;28;43887;-71
2022/04/16 07:43:04;;;;;;;1.17;1.17;;;19.50;65.40;;;;;;5028342;28;43973;-71
2022/04/16 07:45:32;;;;;;;1.10;1.10;;;19.50;66.20;;;;;;5028155;28;44164;-71
2022/04/16 07:48:00;;;;;;;1.20;1.20;;;19.40;65.70;;;;;;5009877;28;46284;-71
2022/04/16 07:50:28;;;;;;;1.40;1.40;;;19.30;65.80;;;;;;5028326;28;43905;-71
2022/04/16 07:52:56;;;;;;;1.63;1.63;;;19.30;66.10;;;;;;5028400;28;44012;-72
2022/04/16 07:55:27;;;;;;;1.30;1.30;;;19.20;66.20;;;;;;5027868;28;43820;-71
2022/04/16 07:57:55;;;;;;;1.27;1.27;;;19.20;66.50;;;;;;5027911;28;44111;-71
2022/04/16 08:00:23;;;;;;;1.27;1.27;;;19.10;66.50;;;;;;5028262;28;44033;-71
2022/04/16 08:02:51;;;;;;;1.20;1.20;;;19.10;66.70;;;;;;5028013;28;43823;-71
2022/04/16 08:05:19;;;;;;;1.20;1.20;;;19.10;66.70;;;;;;5027980;28;44981;-72
2022/04/16 08:07:50;;;;;;;1.30;1.30;;;19.10;67.10;;;;;;5027997;28;43459;-71
2022/04/16 08:10:18;;;;;;;1.30;1.30;;;19.20;66.80;;;;;;5028211;28;43910;-71
2022/04/16 08:12:47;;;;;;;1.23;1.23;;;19.40;66.50;;;;;;5028256;28;44096;-71
2022/04/16 08:15:15;;;;;;;1.23;1.23;;;19.60;65.90;;;;;;5008778;28;46906;-72
2022/04/16 08:17:43;;;;;;;1.30;1.30;;;19.80;65.30;;;;;;5027256;28;43397;-71
2022/04/16 08:20:11;;;;;;;1.20;1.20;;;19.90;64.90;;;;;;5009788;28;43997;-71
2022/04/16 08:22:46;;;;;;;1.27;1.27;;;19.80;64.60;;;;;;5010086;28;44299;-72
2022/04/16 08:28:01;;;;;;;1.13;1.13;;;19.60;65.00;;;;;;5027278;28;43915;-71
2022/04/16 08:30:29;;;;;;;1.10;1.10;;;19.50;65.40;;;;;;5009399;28;44069;-71
2022/04/16 08:32:57;;;;;;;1.20;1.20;;;19.40;65.70;;;;;;5027681;28;43921;-71
2022/04/16 08:35:25;;;;;;;1.20;1.20;;;19.30;65.90;;;;;;5027152;28;43959;-71
2022/04/16 08:37:53;;;;;;;1.40;1.40;;;19.20;66.00;;;;;;5027086;28;43971;-70
2022/04/16 08:40:21;;;;;;;1.20;1.20;;;19.20;66.40;;;;;;5027419;28;43854;-71
2022/04/16 08:42:49;;;;;;;1.20;1.20;;;19.20;66.60;;;;;;5027402;28;44235;-70
2022/04/16 08:45:19;;;;;;;1.17;1.10;;;19.30;66.30;;;;;;5009492;28;46056;-71
2022/04/16 08:47:47;;;;;;;1.40;1.30;;;19.50;65.90;;;;;;5027525;28;43993;-71
2022/04/16 08:50:15;;;;;;;1.27;1.27;;;19.50;65.00;;;;;;5027035;28;44018;-71
2022/04/16 08:52:43;;;;;;;1.10;1.10;;;19.40;66.00;;;;;;5027609;28;43910;-70
2022/04/16 08:55:12;;;;;;;1.33;1.33;;;19.30;65.40;;;;;;5026331;28;44847;-71
2022/04/16 08:57:41;;;;;;;1.10;1.10;;;19.20;65.90;;;;;;5027241;28;43406;-71
2022/04/16 09:00:13;;;;;;;1.10;1.10;;;19.20;66.90;;;;;;5009050;28;44005;-71
2022/04/16 09:02:56;;;;;;;1.20;1.20;;;19.10;66.20;;;;;;5027560;28;43968;-72
2022/04/16 09:05:24;;;;;;;1.33;1.33;;;19.10;66.30;;;;;;5026641;28;44727;-71
2022/04/16 09:07:53;;;;;;;1.30;1.30;;;19.10;66.60;;;;;;5026500;28;44001;-71
2022/04/16 09:10:21;;;;;;;1.40;1.40;;;19.10;66.70;;;;;;5027013;28;44043;-72
2022/04/16 09:12:53;;;;;;;1.80;1.70;;;19.00;66.10;;;;;;5027188;28;44013;-71
2022/04/16 09:15:21;;;;;;;2.23;1.90;;;19.00;64.80;;;;;;5026718;28;43918;-73
2022/04/16 09:18:01;;;;;;;2.03;1.80;;;19.10;65.00;;;;;;5026427;28;44076;-71
2022/04/16 09:20:31;;;;;;;1.60;1.60;;;19.30;64.70;;;;;;5008626;28;43360;-71
2022/04/16 09:22:59;;;;;;;2.30;2.10;;;19.50;64.10;;;;;;5026481;28;44138;-72
2022/04/16 09:25:30;;;;;;;2.03;1.90;;;19.60;63.60;;;;;;5019934;28;44000;-72
2022/04/16 09:27:58;;;;;;;2.60;2.43;;;19.70;63.40;;;;;;5000935;28;44462;-71
2022/04/16 09:30:31;;;;;;;3.67;2.50;;;19.70;63.10;;;;;;5008636;28;43455;-71
2022/04/16 09:33:01;;;;;;;3.80;2.67;;;19.60;63.10;;;;;;5026449;28;44070;-72
2022/04/16 09:35:30;;;;;;;3.57;3.03;;;19.50;63.20;;;;;;5026347;28;44831;-71
2022/04/16 09:38:14;;;;;;;4.80;2.93;;;19.40;63.60;;;;;;5026386;28;43855;-73
2022/04/16 09:40:46;;;;;;;3.13;2.83;;;19.30;63.80;;;;;;5026471;28;44076;-71
2022/04/16 09:43:14;;;;;;;5.87;3.07;;;19.20;64.00;;;;;;5008578;28;44123;-71
2022/04/16 09:45:42;;;;;;;6.93;3.33;;;19.20;64.30;;;;;;5008059;28;45963;-71
2022/04/16 09:48:13;;;;;;;4.67;3.00;;;19.10;64.70;;;;;;5007380;28;43894;-71
2022/04/16 09:50:42;;;;;;;6.00;3.37;;;19.20;65.10;;;;;;5026247;28;44187;-71
2022/04/16 09:53:10;;;;;;;6.77;3.30;;;19.30;64.80;;;;;;5026573;28;44092;-71
2022/04/16 09:55:38;;;;;;;5.33;3.40;;;19.40;64.50;;;;;;5008157;28;45689;-71
2022/04/16 09:58:07;;;;;;;6.33;3.60;;;19.40;64.00;;;;;;5025718;28;44020;-71
2022/04/16 10:00:37;;;;;;;3.90;3.30;;;19.30;63.90;;;;;;5007952;28;44038;-72
2022/04/16 10:03:27;;;;;;;5.93;2.90;;;19.20;64.00;;;;;;5026350;28;44031;-72
2022/04/16 10:05:55;;;;;;;3.90;3.23;;;19.20;64.40;;;;;;5025712;28;44274;-71
2022/04/16 10:08:24;;;;;;;5.80;3.37;;;19.10;64.60;;;;;;5025900;28;43948;-71
2022/04/16 10:10:54;;;;;;;3.40;2.80;;;19.10;64.90;;;;;;5025662;28;44023;-71
2022/04/16 10:13:22;;;;;;;5.30;3.20;;;19.00;64.90;;;;;;5008315;28;43848;-72
2022/04/16 10:15:59;;;;;;;4.40;3.73;;;19.00;65.10;;;;;;5024927;28;43982;-71
2022/04/16 10:18:29;;;;;;;3.03;2.80;;;19.00;65.30;;;;;;5025859;28;44067;-72
2022/04/16 10:21:00;;;;;;;4.77;3.00;;;19.00;65.40;;;;;;5025871;28;43347;-72
2022/04/16 10:23:30;;;;;;;6.37;3.20;;;19.00;65.60;;;;;;5008325;28;43604;-71
2022/04/16 10:26:02;;;;;;;3.97;3.00;;;19.10;65.50;;;;;;5025592;28;43841;-71
2022/04/16 10:28:37;;;;;;;6.97;2.70;;;19.30;65.10;;;;;;5026113;28;43974;-70
2022/04/16 10:31:07;;;;;;;4.47;2.83;;;19.50;64.60;;;;;;5007809;28;44233;-71
2022/04/16 10:33:36;;;;;;;3.80;3.03;;;19.60;63.90;;;;;;5008562;28;43845;-72
2022/04/16 10:36:09;;;;;;;4.43;2.73;;;19.70;63.60;;;;;;5026396;28;43907;-71
2022/04/16 10:38:38;;;;;;;5.30;2.90;;;19.70;63.40;;;;;;5027057;28;43890;-72
2022/04/16 10:41:11;;;;;;;3.63;2.83;;;19.70;63.60;;;;;;5023459;28;44005;-71
2022/04/16 10:43:55;;;;;;;3.53;2.50;;;19.60;63.90;;;;;;5031140;28;43374;-70
2022/04/16 10:46:24;;;;;;;2.83;2.63;;;19.40;64.20;;;;;;5029511;28;43971;-71
2022/04/16 10:48:55;;;;;;;3.90;2.67;;;19.30;64.50;;;;;;5029369;28;43953;-71
2022/04/16 10:51:23;;;;;;;4.63;2.63;;;19.30;64.90;;;;;;5029526;28;44067;-72
2022/04/16 10:53:51;;;;;;;2.73;2.53;;;19.20;65.00;;;;;;5029722;28;43993;-72
2022/04/16 10:56:20;;;;;;;4.53;2.70;;;19.20;65.30;;;;;;5011352;28;46181;-71
2022/04/16 10:58:49;;;;;;;3.43;2.80;;;19.20;65.60;;;;;;5029467;28;43412;-71
2022/04/16 11:01:24;;;;;;;3.73;2.83;;;19.30;65.20;;;;;;5029035;28;43812;-72
2022/04/16 11:03:54;;;;;;;2.80;2.60;;;19.50;64.80;;;;;;5011165;28;43865;-71
2022/04/16 11:06:33;;;;;;;3.03;2.60;;;19.50;64.40;;;;;;5028691;28;44681;-71
2022/04/16 11:09:01;;;;;;;3.33;2.47;;;19.50;64.40;;;;;;5004483;28;45041;-71
2022/04/16 11:11:28;;;;;;;2.60;2.40;;;19.50;64.60;;;;;;5010535;28;43997;-71
2022/04/16 11:13:57;;;;;;;2.60;2.40;;;19.40;65.00;;;;;;5022392;28;44085;-72
2022/04/16 11:16:25;;;;;;;3.07;2.20;;;19.30;65.10;;;;;;5022122;28;44035;-71
2022/04/16 11:18:54;;;;;;;2.30;2.20;;;19.20;65.30;;;;;;5022182;28;43923;-72
2022/04/16 11:21:29;;;;;;;2.53;2.07;;;19.20;65.60;;;;;;5004809;28;43528;-71
2022/04/16 11:24:04;;;;;;;2.30;2.20;;;19.20;65.70;;;;;;5010599;28;43896;-71
2022/04/16 11:34:52;;;;;;;2.20;2.10;;;19.30;65.80;;;;;;5029222;28;44184;-72
2022/04/16 11:37:29;;;;;;;2.00;1.90;;;19.50;65.10;;;;;;5028486;28;44054;-71
2022/04/16 11:40:01;;;;;;;2.00;1.90;;;19.80;64.60;;;;;;5028064;28;44075;-71
2022/04/16 11:42:30;;;;;;;2.20;2.10;;;19.90;64.10;;;;;;5028357;28;43896;-72
2022/04/16 11:44:58;;;;;;;2.20;2.07;;;19.90;63.70;;;;;;5028226;28;44046;-71
2022/04/16 11:47:27;;;;;;;2.03;1.93;;;19.90;63.70;;;;;;5028347;28;44020;-71
2022/04/16 11:49:57;;;;;;;2.00;1.90;;;19.80;63.90;;;;;;5027485;28;43345;-71
2022/04/16 11:52:26;;;;;;;2.40;2.20;;;19.60;64.20;;;;;;5027873;28;43447;-71
2022/04/16 11:55:01;;;;;;;2.33;2.13;;;19.50;64.60;;;;;;5028318;28;43877;-71
2022/04/16 11:57:29;;;;;;;3.43;1.90;;;19.50;65.00;;;;;;5021716;28;43839;-70
2022/04/16 11:59:58;;;;;;;1.67;1.67;;;19.30;65.10;;;;;;5021607;28;44127;-71
2022/04/16 12:02:32;;;;;;;2.00;1.90;;;19.30;65.50;;;;;;5020771;28;44035;-72
2022/04/16 12:05:12;;;;;;;2.30;2.20;;;19.30;65.80;;;;;;5028366;28;44023;-71
2022/04/16 12:07:41;;;;;;;2.47;1.90;;;19.40;65.50;;;;;;5028296;28;43961;-70
2022/04/16 12:10:10;;;;;;;2.10;2.00;;;19.60;65.00;;;;;;5027791;28;44085;-71
2022/04/16 12:12:46;;;;;;;2.00;1.90;;;19.60;64.80;;;;;;5027643;28;44000;-71
2022/04/16 12:15:19;;;;;;;1.67;1.63;;;19.60;64.80;;;;;;5010263;28;44029;-71
2022/04/16 12:17:47;;;;;;;1.80;1.70;;;19.50;64.90;;;;;;5023273;28;46219;-70
2022/04/16 12:20:16;;;;;;;1.70;1.60;;;19.40;65.10;;;;;;5026133;28;45269;-72
2022/04/16 12:22:48;;;;;;;2.00;1.90;;;19.30;65.40;;;;;;5026334;28;44003;-71
2022/04/16 12:25:18;;;;;;;1.57;1.57;;;19.30;65.70;;;;;;5028596;28;44275;-71
2022/04/16 12:27:47;;;;;;;1.90;1.80;;;19.20;65.90;;;;;;5027662;28;43923;-71
2022/04/16 12:30:19;;;;;;;1.73;1.63;;;19.20;66.10;;;;;;5027882;28;43932;-71
2022/04/16 12:32:57;;;;;;;1.80;1.70;;;19.10;66.20;;;;;;5028261;28;43907;-72
2022/04/16 12:35:26;;;;;;;2.00;1.90;;;19.10;66.30;;;;;;5027913;28;43963;-72
2022/04/16 12:37:54;;;;;;;1.67;1.67;;;19.10;66.40;;;;;;5027608;28;44134;-72
2022/04/16 12:40:22;;;;;;;1.43;1.43;;;19.20;66.30;;;;;;5027593;28;43956;-71
2022/04/16 12:42:50;;;;;;;1.30;1.30;;;19.30;65.90;;;;;;5027773;28;43371;-70
2022/04/16 12:45:18;;;;;;;1.67;1.57;;;19.50;65.30;;;;;;5028503;28;43308;-71
2022/04/16 12:47:46;;;;;;;1.60;1.60;;;19.70;64.90;;;;;;5027983;28;43602;-70
2022/04/16 12:50:14;;;;;;;1.50;1.50;;;19.90;64.40;;;;;;5027736;28;43874;-71
2022/04/16 12:52:44;;;;;;;1.60;1.50;;;19.90;63.90;;;;;;5026176;28;44081;-71
2022/04/16 12:55:12;;;;;;;1.60;1.60;;;19.90;63.90;;;;;;5026670;28;43996;-71
2022/04/16 12:57:42;;;;;;;1.50;1.50;;;19.80;64.20;;;;;;5027709;28;43595;-72
2022/04/16 13:00:11;;;;;;;1.80;1.70;;;19.70;64.50;;;;;;5027877;28;44095;-71
2022/04/16 13:02:43;;;;;;;1.47;1.40;;;19.60;64.80;;;;;;5027087;28;43362;-70
2022/04/16 13:05:12;;;;;;;1.40;1.40;;;19.40;65.00;;;;;;5027276;28;44246;-71
2022/04/16 13:07:40;;;;;;;1.50;1.50;;;19.40;65.40;;;;;;5027044;28;43946;-71
2022/04/16 13:10:10;;;;;;;1.60;1.50;;;19.30;65.80;;;;;;5025385;28;44699;-71
2022/04/16 13:12:38;;;;;;;1.60;1.60;;;19.30;65.80;;;;;;5027288;28;44006;-70
2022/04/16 13:15:07;;;;;;;1.50;1.50;;;19.50;65.60;;;;;;5026745;28;43574;-71
2022/04/16 13:17:35;;;;;;;1.53;1.50;;;19.50;65.20;;;;;;5024972;28;46226;-71
2022/04/16 13:20:04;;;;;;;1.23;1.23;;;19.50;65.10;;;;;;5026644;28;44141;-71
2022/04/16 13:22:32;;;;;;;2.27;1.60;;;19.50;65.20;;;;;;5026944;28;43742;-72